Share

Somerset, KY

RAWS SOMERSET KY US (MSOMK2) Elev 920 ft | 37.05 °N, 84.61 °W | Change Station

Current weather conditions updated 38 minutes ago

Clear
Clear
60 °F
Feels Like 60 °F
N
8
Wind Variable Wind from North
Gusts 11.0 mph
Sunrise 6:58 AM
Sunset 8:16 PM
Moon Waning Gibbous

Today is forecast to be Warmer than yesterday.

Pressure 30.25 in
Visibility 10.0 miles
Clouds Clear
Dew Point 40 °F
Humidity 48%
Rainfall 0.00 in
Snow Depth Not available.
UV 5 out of 16
Pollen 11.00 out of 12
Air Quality Not available.
Flu Activity Sporadic
METAR KSME 191415Z AUTO 04009KT 10SM CLR 16/03 A3025 RMK AO2

More Conditions Fewer Conditions

Pressure 30.25 in
Visibility 10.0 miles
Clouds Clear
Dew Point 40 °F
Humidity 48%
Rainfall 0.00 in
Snow Depth Not available.
UV 5 out of 16
Pollen 11.00 out of 12
Air Quality Not available.
Flu Activity Sporadic
METAR KSME 191415Z AUTO 04009KT 10SM CLR 16/03 A3025 RMK AO2

More Conditions Fewer Conditions

10-Day Weather Forecast

Almanac

Astronomy

Apr. 19, 2014 Rise Set
Actual Time 6:58 AM EDT 8:16 PM EDT
Civil Twilight 6:31 AM EDT 8:43 PM EDT
Nautical Twilight 5:59 AM EDT 9:16 PM EDT
Astronomical Twilight 5:25 AM EDT 9:50 PM EDT
Moon No Moon Rise 10:19 AM EDT
Length of Visible Light 14h 12m
Length of Day
13h 18m
Tomorrow will be 2m 12s longer.
Waning Gibbous, 79% of the Moon is Illuminated
Today
Waning Gibbous
Apr 22
Last Quarter
Apr 29
New
May 6
First Quarter
May 14
Full

Today's Extremes

State Highs State Lows

Community

  • A Glorious Morning
    A Glorious Morning
  • Bleeding Hearts
    Bleeding Hearts
  • Sunset Silhouettes
    Sunset Silhouettes
  • FL sunset Perico Isle
    FL sunset Perico Isle
  • La Conner
    La Conner

WunderPhotos

Upload Photos

1,702,745 photos uploaded!

Nearby

Snow Depth

Station Depth Elevation
No new snow has been reported.

Coastal Water Temperatures

Place Temperature
No Stations Reporting

Earthquake Activity

City Distance Mag. Time & Date
Englewood, Tennessee 111 miles 2.8 10:34 PM EDT
2014-04-12
Minimum magnitude displayed is 2.5.

Nearby Weather Stations

Station Location Temp. Dew Point Humidity Wind Precip. Elev Updated Type
RAWS SOMERSET KY, Ferguson, KY 60 °F 40 °F 48% North  at  8 mph 0.00 in / hr 920 ft 10:01 AM EDT MADIS
Clover Pointe, Somerset, KY 62.2 °F 44 °F 52% North  at  3.8 mph 0.00 in / hr 991 ft 10:39 AM EDT Rapid Fire
HALLS BACKYARD WEATHER, SCIENCE HILL, KY 65.5 °F 41 °F 41% North  at  5.0 mph 0.00 in / hr 1076 ft 10:39 AM EDT Normal
Burnside, KY 65.5 °F 27 °F 23% SW  at  3.5 mph 0.00 in / hr 1200 ft 10:39 AM EDT Rapid Fire
Napier Mountain, London, KY 64.2 °F 44 °F 48% NE  at  6.9 mph 0.00 in / hr 1312 ft 10:39 AM EDT Rapid Fire
MSWO, London, KY 65.5 °F 36 °F 34% NNE  at  6.5 mph 0.00 in / hr 1163 ft 10:39 AM EDT Rapid Fire

Show More Stations Show Fewer Stations

What do you think?

We're not finished. Please let us know what you like, what you don't like, and what you are still missing.